Time;durP1;ratioP1;P1;durP2;ratioP2;P2;SDS_P1;SDS_P2;PMS_P1;PMS_P2;Temp;Humidity;BMP_temperature;BMP_pressure;BME280_temperature;BME280_humidity;BME280_pressure;Samples;Min_cycle;Max_cycle;Signal;HPM_P1;HPM_P2
2022/11/28 00:01:54;;;;;;;18.15;11.85;;;5.90;99.90;;;;;;5087535;28;20028;-59
2022/11/28 00:04:40;;;;;;;18.55;12.57;;;6.00;99.90;;;;;;5090117;28;20032;-56
2022/11/28 00:07:26;;;;;;;14.27;12.30;;;6.00;99.90;;;;;;5070507;28;20112;-60
2022/11/28 00:10:17;;;;;;;18.10;12.77;;;5.90;99.90;;;;;;5071146;28;20058;-59
2022/11/28 00:13:03;;;;;;;15.13;11.63;;;5.90;99.90;;;;;;5076141;28;20073;-61
2022/11/28 00:16:00;;;;;;;17.60;12.45;;;5.90;99.90;;;;;;5081244;28;20447;-59
2022/11/28 00:18:53;;;;;;;16.42;12.88;;;5.80;99.90;;;;;;5056533;28;20051;-61
2022/11/28 00:21:40;;;;;;;17.58;12.13;;;5.70;99.90;;;;;;5083662;28;20059;-58
2022/11/28 00:24:30;;;;;;;19.95;13.13;;;5.70;99.90;;;;;;5081056;28;20028;-60
2022/11/28 00:27:16;;;;;;;18.95;13.65;;;5.70;99.90;;;;;;5073665;28;20031;-60
2022/11/28 00:30:03;;;;;;;17.90;12.55;;;5.70;99.90;;;;;;5089504;28;20020;-58
2022/11/28 00:32:49;;;;;;;19.02;13.15;;;5.60;99.90;;;;;;5086703;28;20056;-59
2022/11/28 00:35:35;;;;;;;20.55;13.05;;;5.60;99.90;;;;;;5056815;28;20716;-60
2022/11/28 00:38:20;;;;;;;19.85;13.55;;;5.60;99.90;;;;;;5076549;28;20105;-60
2022/11/28 00:41:10;;;;;;;20.92;13.98;;;5.50;99.90;;;;;;5074260;28;20121;-59
2022/11/28 00:43:57;;;;;;;20.23;14.23;;;5.50;99.90;;;;;;5074414;28;20519;-59
2022/11/28 00:46:43;;;;;;;17.20;13.18;;;5.40;99.90;;;;;;5070964;28;20504;-58
2022/11/28 00:49:29;;;;;;;18.48;13.25;;;5.50;99.90;;;;;;5089938;28;20020;-59
2022/11/28 00:52:15;;;;;;;22.02;14.73;;;5.50;99.90;;;;;;5083057;28;20025;-58
2022/11/28 00:55:01;;;;;;;20.92;14.60;;;5.50;99.90;;;;;;5076429;28;20064;-58
2022/11/28 00:57:46;;;;;;;18.63;13.07;;;5.60;99.90;;;;;;5069613;28;20043;-60
2022/11/28 01:00:33;;;;;;;18.85;13.77;;;5.50;99.90;;;;;;5058869;28;20028;-60
2022/11/28 01:03:19;;;;;;;21.27;13.15;;;5.60;99.90;;;;;;5088909;28;20070;-60
2022/11/28 01:06:06;;;;;;;18.75;14.23;;;5.60;99.90;;;;;;5070871;28;20021;-61
2022/11/28 01:08:52;;;;;;;20.80;14.20;;;5.60;99.90;;;;;;5071135;28;20516;-60
2022/11/28 01:11:41;;;;;;;19.30;13.65;;;5.50;99.90;;;;;;5069369;28;20759;-60
2022/11/28 01:14:29;;;;;;;20.45;13.52;;;5.50;99.90;;;;;;5073625;28;20020;-57
2022/11/28 01:17:15;;;;;;;18.35;13.40;;;5.40;99.90;;;;;;5074693;28;20036;-60
2022/11/28 01:20:01;;;;;;;19.92;13.63;;;5.40;99.90;;;;;;5081117;28;20036;-59
2022/11/28 01:22:47;;;;;;;18.98;13.60;;;5.50;99.90;;;;;;5069953;28;20024;-60
2022/11/28 01:25:34;;;;;;;17.60;12.20;;;5.60;99.90;;;;;;5085665;28;20043;-60
2022/11/28 01:28:20;;;;;;;18.25;13.05;;;5.50;99.90;;;;;;5090083;28;20082;-55
2022/11/28 01:31:07;;;;;;;18.15;11.85;;;5.60;99.90;;;;;;5088344;28;20032;-59
2022/11/28 01:33:54;;;;;;;17.55;12.32;;;5.60;99.90;;;;;;5076926;28;20518;-59
2022/11/28 01:36:40;;;;;;;15.93;11.88;;;5.60;99.90;;;;;;5072898;28;20619;-59
2022/11/28 01:39:26;;;;;;;16.38;12.07;;;5.70;99.90;;;;;;5090155;28;20470;-59
2022/11/28 01:42:19;;;;;;;15.77;11.80;;;5.80;99.90;;;;;;5091987;28;20404;-59
2022/11/28 01:45:17;;;;;;;15.35;11.13;;;5.70;99.90;;;;;;5093258;28;20523;-57
2022/11/28 01:48:03;;;;;;;16.63;11.80;;;5.70;99.90;;;;;;5085803;28;20052;-57
2022/11/28 01:50:54;;;;;;;15.98;11.88;;;5.60;99.90;;;;;;5071207;28;20032;-56
2022/11/28 01:53:44;;;;;;;18.23;12.48;;;5.60;99.90;;;;;;5074342;28;20051;-60
2022/11/28 01:56:40;;;;;;;15.98;12.20;;;5.60;99.90;;;;;;5086820;28;20025;-61
2022/11/28 01:59:31;;;;;;;19.15;13.55;;;5.60;99.90;;;;;;5075926;28;20066;-59
2022/11/28 02:02:36;;;;;;;16.30;12.90;;;5.60;99.90;;;;;;5072438;28;20025;-59
2022/11/28 02:05:22;;;;;;;17.07;12.63;;;5.70;99.90;;;;;;5073519;28;20162;-58
2022/11/28 02:08:09;;;;;;;18.30;12.73;;;5.60;99.90;;;;;;5073855;28;20759;-57
2022/11/28 02:11:06;;;;;;;17.85;13.25;;;5.60;99.90;;;;;;5073307;28;20021;-60
2022/11/28 02:14:24;;;;;;;20.52;13.00;;;5.60;99.90;;;;;;5069345;28;20062;-58
2022/11/28 02:17:39;;;;;;;19.77;13.73;;;5.60;99.90;;;;;;5092807;28;20515;-56
2022/11/28 02:20:33;;;;;;;18.35;13.57;;;5.60;99.90;;;;;;5071900;28;20034;-58
2022/11/28 02:23:47;;;;;;;17.90;13.25;;;5.60;99.90;;;;;;5077506;28;20497;-61
2022/11/28 02:26:48;;;;;;;18.90;13.07;;;5.60;99.90;;;;;;5089449;28;20496;-58
2022/11/28 02:29:55;;;;;;;20.50;13.75;;;5.60;99.90;;;;;;5072932;28;20100;-59
2022/11/28 02:33:02;;;;;;;19.58;14.18;;;5.60;99.90;;;;;;5077717;28;20109;-60
2022/11/28 02:36:09;;;;;;;19.50;14.35;;;5.60;99.90;;;;;;5078315;28;20078;-57
2022/11/28 02:39:21;;;;;;;22.25;14.30;;;5.50;99.90;;;;;;5086508;28;20111;-59
2022/11/28 02:42:37;;;;;;;18.27;13.32;;;5.50;99.90;;;;;;5059734;28;20158;-59
2022/11/28 02:45:26;;;;;;;20.02;14.82;;;5.50;99.90;;;;;;5090958;28;20077;-58
2022/11/28 02:48:20;;;;;;;19.08;14.10;;;5.40;99.90;;;;;;5082205;28;20036;-60
2022/11/28 02:51:15;;;;;;;17.75;13.95;;;5.40;99.90;;;;;;5070839;28;20017;-60
2022/11/28 02:54:02;;;;;;;22.80;13.98;;;5.50;99.90;;;;;;5087280;28;20117;-59
2022/11/28 02:56:50;;;;;;;18.83;13.85;;;5.50;99.90;;;;;;5091401;28;20679;-59
2022/11/28 02:59:36;;;;;;;21.08;15.25;;;5.50;99.90;;;;;;5073780;28;20069;-58
2022/11/28 03:02:27;;;;;;;18.92;13.77;;;5.50;99.90;;;;;;5090475;28;20108;-60
2022/11/28 03:05:58;;;;;;;19.92;14.25;;;5.50;99.90;;;;;;5091878;28;20027;-57
2022/11/28 03:08:56;;;;;;;19.25;13.18;;;5.50;99.90;;;;;;5025332;28;20035;-59
2022/11/28 03:12:00;;;;;;;19.42;14.02;;;5.40;99.90;;;;;;5070354;28;20066;-58
2022/11/28 03:14:55;;;;;;;19.20;14.38;;;5.40;99.90;;;;;;5072174;28;20024;-59
2022/11/28 03:18:01;;;;;;;19.15;13.45;;;5.40;99.90;;;;;;5056710;28;20024;-57
2022/11/28 03:21:07;;;;;;;20.52;13.88;;;5.40;99.90;;;;;;5089678;28;20095;-60
2022/11/28 03:23:58;;;;;;;;;;;5.30;99.90;;;;;;5074845;28;20044;-59
2022/11/28 03:26:54;;;;;;;16.90;12.57;;;5.30;99.90;;;;;;5071569;28;19966;-58
2022/11/28 03:29:47;;;;;;;16.70;11.95;;;5.30;99.90;;;;;;5070934;28;20063;-56
2022/11/28 03:32:36;;;;;;;17.38;12.68;;;5.40;99.90;;;;;;5078342;28;20017;-60
2022/11/28 03:35:27;;;;;;;19.73;13.90;;;5.40;99.90;;;;;;5091002;28;20070;-59
2022/11/28 03:38:23;;;;;;;16.40;12.75;;;5.50;99.90;;;;;;5089723;28;20396;-60
2022/11/28 03:41:16;;;;;;;17.20;12.88;;;5.60;99.90;;;;;;5090934;28;20036;-60
2022/11/28 03:44:10;;;;;;;20.65;15.50;;;5.60;99.90;;;;;;5090166;28;20028;-57
2022/11/28 03:46:59;;;;;;;18.33;14.20;;;5.60;99.90;;;;;;5089481;28;20028;-56
2022/11/28 03:49:51;;;;;;;18.38;13.77;;;5.60;99.90;;;;;;5071271;28;20029;-58
2022/11/28 03:52:45;;;;;;;16.00;11.68;;;5.60;99.90;;;;;;5072305;28;20028;-60
2022/11/28 03:55:42;;;;;;;15.85;11.88;;;5.70;99.90;;;;;;5071654;28;20106;-57
2022/11/28 03:58:44;;;;;;;15.75;11.40;;;5.60;99.90;;;;;;5089015;28;20040;-60
2022/11/28 04:01:50;;;;;;;15.10;12.07;;;5.60;99.90;;;;;;5082896;28;20032;-60
2022/11/28 04:04:41;;;;;;;;;;;5.70;99.90;;;;;;5071362;28;20024;-58
2022/11/28 04:07:45;;;;;;;16.58;11.80;;;5.80;99.90;;;;;;5074000;28;19912;-59
2022/11/28 04:10:54;;;;;;;13.52;10.65;;;5.80;99.90;;;;;;5095458;28;20687;-59
2022/11/28 04:13:51;;;;;;;16.35;12.00;;;5.90;99.90;;;;;;5105502;28;20020;-58
2022/11/28 04:16:46;;;;;;;16.10;11.90;;;5.90;99.90;;;;;;5090353;28;20066;-59
2022/11/28 04:19:53;;;;;;;15.88;11.90;;;5.80;99.90;;;;;;5090396;28;20028;-58
2022/11/28 04:22:55;;;;;;;16.38;11.38;;;5.80;99.90;;;;;;5091612;28;20030;-61
2022/11/28 04:25:49;;;;;;;19.77;15.23;;;5.80;99.90;;;;;;5070140;28;20036;-54
2022/11/28 04:28:36;;;;;;;14.32;10.90;;;5.80;99.90;;;;;;5085325;28;20024;-58
2022/11/28 04:31:24;;;;;;;14.70;11.80;;;5.80;99.90;;;;;;5088270;28;20074;-56
2022/11/28 04:34:15;;;;;;;12.90;11.45;;;5.80;99.90;;;;;;5095267;28;20051;-60
2022/11/28 04:37:03;;;;;;;14.75;10.60;;;5.80;99.90;;;;;;5109845;28;20059;-58
2022/11/28 04:39:51;;;;;;;17.23;11.60;;;5.80;99.90;;;;;;5072050;28;20496;-57
2022/11/28 04:42:48;;;;;;;21.23;11.30;;;5.70;99.90;;;;;;5083974;28;20040;-58
2022/11/28 04:45:42;;;;;;;17.85;10.70;;;5.70;99.90;;;;;;5081325;28;20035;-54
2022/11/28 04:48:28;;;;;;;13.05;10.10;;;5.80;99.90;;;;;;5105677;28;20486;-56
2022/11/28 04:51:23;;;;;;;14.35;10.90;;;5.80;99.90;;;;;;5093578;28;20027;-56
2022/11/28 04:54:25;;;;;;;15.88;11.70;;;5.90;99.90;;;;;;5090008;28;20035;-60
2022/11/28 04:57:16;;;;;;;14.82;11.80;;;5.70;99.90;;;;;;5079309;28;20650;-58
2022/11/28 05:00:07;;;;;;;16.48;12.07;;;5.70;99.90;;;;;;5067156;28;20043;-59
2022/11/28 05:02:55;;;;;;;15.20;11.20;;;5.70;99.90;;;;;;5081580;28;20030;-59
2022/11/28 05:05:44;;;;;;;17.38;12.55;;;5.70;99.90;;;;;;5109583;28;20480;-59
2022/11/28 05:08:30;;;;;;;18.63;13.18;;;5.70;99.90;;;;;;5095775;28;20024;-60
2022/11/28 05:11:15;;;;;;;17.35;11.85;;;5.60;99.90;;;;;;5085814;28;20435;-60
2022/11/28 05:14:01;;;;;;;17.92;12.88;;;5.60;99.90;;;;;;5076681;28;20453;-59
2022/11/28 05:16:48;;;;;;;16.88;13.23;;;5.60;99.90;;;;;;5077557;28;20115;-59
2022/11/28 05:19:33;;;;;;;18.17;13.98;;;5.50;99.90;;;;;;5079906;28;20461;-59
2022/11/28 05:22:19;;;;;;;20.10;12.77;;;5.50;99.90;;;;;;5082340;28;20527;-59
2022/11/28 05:25:06;;;;;;;17.83;13.43;;;5.60;99.90;;;;;;5082968;28;20120;-59
2022/11/28 05:27:51;;;;;;;18.02;12.23;;;5.60;99.90;;;;;;5091545;28;20021;-59
2022/11/28 05:30:37;;;;;;;19.83;12.05;;;5.60;99.90;;;;;;5078131;28;20029;-59
2022/11/28 05:33:23;;;;;;;17.67;13.07;;;5.60;99.90;;;;;;5090173;28;20107;-59
2022/11/28 05:36:11;;;;;;;27.50;13.05;;;5.40;99.90;;;;;;5096429;28;20021;-57
2022/11/28 05:38:57;;;;;;;20.50;12.20;;;5.30;99.90;;;;;;5064778;28;20508;-56
2022/11/28 05:41:43;;;;;;;16.08;11.55;;;5.30;99.90;;;;;;5079223;28;20456;-56
2022/11/28 05:44:29;;;;;;;18.33;12.43;;;5.20;99.90;;;;;;5095473;28;20595;-58
2022/11/28 05:47:15;;;;;;;17.85;12.13;;;5.20;99.90;;;;;;5089559;28;20036;-57
2022/11/28 05:50:01;;;;;;;19.00;12.73;;;5.20;99.90;;;;;;5077255;28;20021;-60
2022/11/28 05:52:47;;;;;;;18.65;12.68;;;5.20;99.90;;;;;;5087020;28;20032;-59
2022/11/28 05:55:33;;;;;;;21.27;13.32;;;5.10;99.90;;;;;;5094311;28;20082;-56
2022/11/28 05:58:19;;;;;;;22.23;15.93;;;5.10;99.90;;;;;;5077381;28;20029;-56
2022/11/28 06:01:13;;;;;;;18.60;13.30;;;5.10;99.90;;;;;;5090217;28;20033;-61
2022/11/28 06:04:00;;;;;;;23.00;14.55;;;5.20;99.90;;;;;;5090978;28;20035;-62
2022/11/28 06:06:49;;;;;;;42.10;15.88;;;5.10;99.90;;;;;;5077804;28;20119;-60
2022/11/28 06:09:35;;;;;;;16.00;12.35;;;5.10;99.90;;;;;;5077386;28;20374;-59
2022/11/28 06:12:21;;;;;;;22.58;14.32;;;5.10;99.90;;;;;;5063298;28;20145;-61
2022/11/28 06:15:08;;;;;;;18.60;13.48;;;5.00;99.90;;;;;;5095804;28;20044;-56
2022/11/28 06:17:54;;;;;;;19.67;13.93;;;5.00;99.90;;;;;;5080774;28;20123;-59
2022/11/28 06:20:40;;;;;;;20.38;13.45;;;5.00;99.90;;;;;;5072634;28;20151;-54
2022/11/28 06:23:26;;;;;;;20.00;13.20;;;5.10;99.90;;;;;;5090468;28;20038;-54
2022/11/28 06:26:16;;;;;;;18.63;13.38;;;5.20;99.90;;;;;;5063058;28;20029;-60
2022/11/28 06:29:02;;;;;;;20.55;12.70;;;5.30;99.90;;;;;;5073842;28;20025;-62
2022/11/28 06:31:48;;;;;;;18.83;13.57;;;5.30;99.90;;;;;;5090493;28;20427;-60
2022/11/28 06:34:34;;;;;;;24.27;14.18;;;5.40;99.90;;;;;;5075436;28;20032;-60
2022/11/28 06:37:20;;;;;;;23.20;14.95;;;5.40;99.90;;;;;;5092433;28;20032;-58
2022/11/28 06:40:06;;;;;;;23.50;14.10;;;5.50;99.90;;;;;;5084622;28;20059;-54
2022/11/28 06:42:52;;;;;;;25.52;14.10;;;5.40;99.90;;;;;;5073334;28;20024;-59
2022/11/28 06:45:38;;;;;;;20.13;12.25;;;5.30;99.90;;;;;;5084080;28;20024;-57
2022/11/28 06:48:24;;;;;;;23.27;12.90;;;5.30;99.90;;;;;;5075182;28;20024;-58
2022/11/28 06:51:12;;;;;;;23.15;14.20;;;5.40;99.90;;;;;;5091509;28;20069;-59
2022/11/28 06:53:58;;;;;;;19.85;13.02;;;5.40;99.90;;;;;;5071541;28;20119;-56
2022/11/28 06:56:43;;;;;;;15.20;12.23;;;5.40;99.90;;;;;;5064098;28;20024;-58
2022/11/28 06:59:29;;;;;;;17.30;12.15;;;5.30;99.90;;;;;;5077701;28;20025;-59
2022/11/28 07:02:15;;;;;;;16.83;11.20;;;5.30;99.90;;;;;;5077844;28;20064;-59
2022/11/28 07:05:01;;;;;;;15.77;11.43;;;5.40;99.90;;;;;;5091006;28;20070;-53
2022/11/28 07:07:47;;;;;;;16.33;11.63;;;5.40;99.90;;;;;;5072659;28;20024;-60
2022/11/28 07:10:33;;;;;;;17.90;11.75;;;5.50;99.90;;;;;;5073684;28;20024;-57
2022/11/28 07:13:19;;;;;;;21.55;12.65;;;5.50;99.90;;;;;;5081180;28;20097;-58
2022/11/28 07:16:06;;;;;;;15.98;11.32;;;5.50;99.90;;;;;;5091640;28;20042;-61
2022/11/28 07:18:53;;;;;;;14.70;11.20;;;5.40;99.90;;;;;;5057375;28;20032;-57
2022/11/28 07:21:40;;;;;;;21.55;11.65;;;5.40;99.90;;;;;;5072123;28;20116;-59
2022/11/28 07:24:26;;;;;;;19.40;12.95;;;5.50;99.90;;;;;;5088345;28;20602;-59
2022/11/28 07:27:12;;;;;;;16.55;11.70;;;5.50;99.90;;;;;;5090568;28;20101;-55
2022/11/28 07:29:58;;;;;;;16.38;10.82;;;5.50;99.90;;;;;;5072425;28;20025;-62
2022/11/28 07:32:44;;;;;;;16.58;11.40;;;5.50;99.90;;;;;;5073518;28;20031;-61
2022/11/28 07:35:32;;;;;;;15.38;10.90;;;5.50;99.90;;;;;;5075128;28;20439;-59
2022/11/28 07:38:18;;;;;;;13.52;10.30;;;5.50;99.90;;;;;;5088391;28;20511;-57
2022/11/28 07:41:10;;;;;;;17.00;10.15;;;5.40;99.90;;;;;;5071768;28;20402;-58
2022/11/28 07:43:58;;;;;;;18.40;10.50;;;5.50;99.90;;;;;;5071783;28;20036;-57
2022/11/28 07:46:45;;;;;;;16.17;9.77;;;5.40;99.90;;;;;;5056909;28;20017;-58
2022/11/28 07:49:31;;;;;;;18.67;10.77;;;5.40;99.90;;;;;;5070955;28;20032;-57
2022/11/28 07:52:17;;;;;;;18.13;9.95;;;5.50;99.90;;;;;;5074225;28;20045;-56
2022/11/28 07:55:03;;;;;;;29.55;10.93;;;5.50;99.90;;;;;;5089031;28;20028;-59
2022/11/28 07:57:49;;;;;;;16.80;9.50;;;5.50;99.90;;;;;;5074132;28;20036;-57
2022/11/28 08:00:35;;;;;;;14.48;8.88;;;5.50;99.90;;;;;;5076160;28;20032;-60
2022/11/28 08:03:21;;;;;;;15.65;10.20;;;5.50;99.90;;;;;;5089642;28;20035;-59
2022/11/28 08:06:07;;;;;;;19.25;10.30;;;5.50;99.90;;;;;;5074735;28;20085;-59
2022/11/28 08:08:54;;;;;;;16.05;9.68;;;5.60;99.90;;;;;;5074524;28;20032;-58
2022/11/28 08:11:41;;;;;;;21.55;10.13;;;5.60;99.90;;;;;;5080765;28;20074;-59
2022/11/28 08:14:27;;;;;;;16.05;9.75;;;5.70;99.90;;;;;;5071150;28;20450;-55
2022/11/28 08:17:13;;;;;;;11.63;9.00;;;5.70;99.90;;;;;;5070826;28;20144;-59
2022/11/28 08:19:59;;;;;;;34.65;11.80;;;5.80;99.90;;;;;;5079312;28;20107;-59
2022/11/28 08:22:45;;;;;;;37.03;10.77;;;5.80;99.90;;;;;;5089435;28;20032;-60
2022/11/28 08:25:31;;;;;;;30.92;10.55;;;5.90;99.90;;;;;;5076633;28;20028;-58
2022/11/28 08:28:17;;;;;;;25.38;11.77;;;5.90;99.90;;;;;;5084198;28;20036;-59
2022/11/28 08:31:15;;;;;;;18.45;10.13;;;5.90;99.90;;;;;;5090882;28;20028;-58
2022/11/28 08:34:04;;;;;;;17.63;10.85;;;5.90;99.90;;;;;;5091391;28;20028;-59
2022/11/28 08:36:50;;;;;;;35.50;10.70;;;6.00;99.90;;;;;;5113690;28;20137;-58
2022/11/28 08:39:36;;;;;;;23.10;10.50;;;6.00;99.90;;;;;;5096189;28;20040;-58
2022/11/28 08:42:22;;;;;;;19.50;11.00;;;6.00;99.90;;;;;;5069743;28;20025;-59
2022/11/28 08:45:10;;;;;;;14.98;10.55;;;6.00;99.90;;;;;;5078005;28;20054;-56
2022/11/28 08:47:57;;;;;;;18.08;10.20;;;6.00;99.90;;;;;;5090574;28;20381;-59
2022/11/28 08:50:47;;;;;;;14.10;9.95;;;6.10;99.90;;;;;;5062954;28;20044;-62
2022/11/28 08:53:33;;;;;;;15.23;10.23;;;6.10;99.90;;;;;;5076545;28;20063;-60
2022/11/28 08:56:19;;;;;;;12.90;9.20;;;6.10;99.90;;;;;;5075039;28;20024;-56
2022/11/28 08:59:06;;;;;;;20.35;9.98;;;6.10;99.90;;;;;;5072344;28;20034;-56
2022/11/28 09:01:52;;;;;;;12.18;8.98;;;6.10;99.90;;;;;;5055369;28;20040;-60
2022/11/28 09:04:38;;;;;;;14.85;9.85;;;6.00;99.90;;;;;;5084139;28;20089;-59
2022/11/28 09:07:24;;;;;;;13.07;10.23;;;6.00;99.90;;;;;;5090172;28;20070;-57
2022/11/28 09:10:10;;;;;;;18.83;10.52;;;6.00;99.90;;;;;;5075678;28;20524;-60
2022/11/28 09:12:56;;;;;;;12.95;10.02;;;6.00;99.90;;;;;;5071480;28;20036;-60
2022/11/28 09:15:44;;;;;;;13.80;9.85;;;6.00;99.90;;;;;;5071069;28;20024;-57
2022/11/28 09:18:30;;;;;;;30.45;10.32;;;6.00;99.90;;;;;;5083929;28;20024;-61
2022/11/28 09:21:16;;;;;;;22.13;9.23;;;6.10;99.90;;;;;;5082641;28;20043;-58
2022/11/28 09:24:02;;;;;;;21.38;10.73;;;6.20;99.90;;;;;;5083320;28;20199;-59
2022/11/28 09:26:48;;;;;;;22.90;11.02;;;6.30;99.90;;;;;;5070967;28;20035;-59
2022/11/28 09:29:34;;;;;;;18.02;9.57;;;6.40;99.90;;;;;;5081965;28;20029;-62
2022/11/28 09:32:20;;;;;;;18.80;9.95;;;6.40;99.90;;;;;;5069850;28;20025;-62
2022/11/28 09:35:06;;;;;;;18.95;11.00;;;6.50;99.90;;;;;;5077592;28;20040;-59
2022/11/28 09:37:52;;;;;;;22.10;9.55;;;6.50;99.90;;;;;;5065304;28;20020;-60
2022/11/28 09:40:42;;;;;;;24.45;10.68;;;6.60;99.90;;;;;;5078765;28;20036;-59
2022/11/28 09:43:37;;;;;;;128.00;17.98;;;6.60;99.90;;;;;;5073791;28;20028;-59
2022/11/28 09:46:33;;;;;;;22.15;11.40;;;6.60;99.90;;;;;;5070128;28;20025;-60
2022/11/28 09:49:25;;;;;;;23.75;10.85;;;6.50;99.90;;;;;;5070059;28;20025;-60
2022/11/28 09:52:31;;;;;;;25.38;11.07;;;6.50;99.90;;;;;;5068829;28;20032;-60
2022/11/28 09:55:22;;;;;;;27.20;11.00;;;6.50;99.90;;;;;;5077043;28;20123;-60
2022/11/28 09:58:17;;;;;;;20.42;11.00;;;6.40;99.90;;;;;;5094773;28;20048;-62
2022/11/28 10:01:09;;;;;;;27.85;13.15;;;6.40;99.90;;;;;;5081448;28;20093;-61
2022/11/28 10:03:55;;;;;;;22.92;11.52;;;6.30;99.90;;;;;;5092653;28;20039;-61
2022/11/28 10:07:08;;;;;;;22.10;12.88;;;6.20;99.90;;;;;;5076177;28;20032;-59
2022/11/28 10:10:18;;;;;;;19.42;12.20;;;6.30;99.90;;;;;;5078364;28;20484;-59
2022/11/28 10:13:15;;;;;;;15.07;10.80;;;6.30;99.90;;;;;;5113287;28;20123;-60
2022/11/28 10:16:13;;;;;;;69.28;14.68;;;6.40;99.90;;;;;;5113178;28;20102;-56
2022/11/28 10:19:06;;;;;;;24.17;12.30;;;6.50;99.90;;;;;;5085525;28;20023;-61
2022/11/28 10:21:56;;;;;;;21.33;11.60;;;6.60;99.90;;;;;;5113023;28;20030;-59
2022/11/28 10:24:55;;;;;;;19.40;11.95;;;6.70;99.90;;;;;;5095052;28;20024;-59
2022/11/28 10:27:41;;;;;;;22.17;12.35;;;6.80;99.90;;;;;;5093707;28;20068;-60
2022/11/28 10:30:34;;;;;;;17.33;11.35;;;6.70;99.90;;;;;;5092482;28;20032;-58
2022/11/28 10:33:28;;;;;;;18.77;11.65;;;6.70;99.90;;;;;;5093850;28;20415;-58
2022/11/28 10:36:57;;;;;;;28.65;13.30;;;6.70;99.90;;;;;;5105641;28;20097;-56
2022/11/28 10:39:47;;;;;;;36.50;13.80;;;6.70;99.90;;;;;;5098709;28;20026;-57
2022/11/28 10:42:50;;;;;;;30.13;13.50;;;6.70;99.90;;;;;;5097778;28;20047;-59
2022/11/28 10:46:18;;;;;;;25.40;14.60;;;6.70;99.90;;;;;;5113016;28;20032;-58
2022/11/28 10:49:24;;;;;;;22.92;15.88;;;6.70;99.90;;;;;;5094136;28;20031;-56
2022/11/28 10:52:36;;;;;;;29.05;15.63;;;6.70;99.90;;;;;;5076855;28;20469;-59
2022/11/28 10:55:40;;;;;;;21.10;13.90;;;6.60;99.90;;;;;;5093418;28;20076;-59
2022/11/28 10:58:35;;;;;;;18.45;12.98;;;6.70;99.90;;;;;;5092254;28;20024;-61
2022/11/28 11:01:21;;;;;;;20.48;12.65;;;6.70;99.90;;;;;;5088189;28;20079;-60
2022/11/28 11:04:27;;;;;;;40.70;13.70;;;6.80;99.90;;;;;;5091765;28;20500;-59
2022/11/28 11:07:18;;;;;;;18.60;11.77;;;6.80;99.90;;;;;;5072345;28;20040;-55
2022/11/28 11:10:14;;;;;;;19.70;12.55;;;6.80;99.90;;;;;;5060427;28;20123;-60
2022/11/28 11:13:31;;;;;;;26.83;12.15;;;6.80;99.90;;;;;;5092382;28;20024;-59
2022/11/28 11:16:16;;;;;;;;;;;6.80;99.90;;;;;;5073981;28;20025;-60
2022/11/28 11:19:02;;;;;;;40.80;13.35;;;6.80;99.90;;;;;;5094077;28;20284;-60
2022/11/28 11:22:18;;;;;;;22.60;10.82;;;6.90;99.90;;;;;;5090199;28;20028;-61
2022/11/28 11:25:11;;;;;;;16.33;9.60;;;7.00;99.90;;;;;;5075111;28;20020;-55
2022/11/28 11:28:00;;;;;;;15.80;10.35;;;7.00;99.90;;;;;;5079253;28;20528;-59
2022/11/28 11:30:46;;;;;;;18.25;11.00;;;7.10;99.90;;;;;;5079396;28;20505;-58
2022/11/28 11:33:34;;;;;;;14.43;10.10;;;7.20;99.90;;;;;;5072263;28;20025;-58
2022/11/28 11:36:29;;;;;;;16.90;11.70;;;7.20;99.90;;;;;;5071642;28;20021;-59
2022/11/28 11:39:20;;;;;;;16.23;10.10;;;7.20;99.90;;;;;;5058030;28;20439;-59
2022/11/28 11:42:06;;;;;;;14.02;9.77;;;7.20;99.90;;;;;;5071221;28;20033;-58
2022/11/28 11:44:56;;;;;;;44.50;11.55;;;7.40;99.90;;;;;;5071042;28;20053;-62
2022/11/28 11:47:43;;;;;;;21.50;9.73;;;7.30;99.90;;;;;;5057028;28;20027;-58
2022/11/28 11:50:30;;;;;;;16.73;9.73;;;7.40;99.90;;;;;;5070052;28;20025;-55
2022/11/28 11:53:17;;;;;;;19.52;9.40;;;7.40;99.90;;;;;;5075048;28;20036;-54
2022/11/28 11:56:04;;;;;;;17.50;10.07;;;7.40;99.90;;;;;;5090929;28;20512;-51
2022/11/28 11:58:53;;;;;;;13.25;9.52;;;7.50;99.90;;;;;;5090391;28;20074;-53
2022/11/28 12:01:41;;;;;;;27.95;10.40;;;7.50;99.90;;;;;;5091163;28;20024;-55
2022/11/28 12:04:37;;;;;;;17.10;9.80;;;7.40;99.90;;;;;;5090288;28;20631;-56
2022/11/28 12:07:44;;;;;;;14.13;9.30;;;7.50;99.90;;;;;;5090924;28;20111;-56
2022/11/28 12:10:38;;;;;;;13.90;9.50;;;7.60;99.90;;;;;;5075443;28;20460;-58
2022/11/28 12:13:25;;;;;;;16.10;9.52;;;7.40;99.90;;;;;;5092197;28;20396;-52
2022/11/28 12:16:59;;;;;;;14.52;9.25;;;7.40;99.90;;;;;;5091333;28;20035;-54
2022/11/28 12:20:04;;;;;;;18.08;10.35;;;7.40;99.90;;;;;;5015177;28;20085;-56
2022/11/28 12:23:04;;;;;;;16.00;10.00;;;7.50;99.90;;;;;;5091330;28;20032;-56
2022/11/28 12:25:59;;;;;;;17.88;9.45;;;7.50;99.90;;;;;;5090749;28;20488;-53
2022/11/28 12:28:57;;;;;;;15.15;10.27;;;7.60;99.90;;;;;;5089994;28;20020;-55
2022/11/28 12:31:48;;;;;;;15.52;10.07;;;7.60;99.90;;;;;;5090095;28;20099;-55
2022/11/28 12:35:00;;;;;;;17.70;9.50;;;7.60;99.90;;;;;;5090183;28;20024;-59
2022/11/28 12:37:59;;;;;;;12.07;9.35;;;7.60;99.90;;;;;;5089747;28;20027;-55
2022/11/28 12:41:04;;;;;;;18.30;9.27;;;7.60;99.90;;;;;;5090619;28;20027;-53
2022/11/28 12:44:02;;;;;;;41.72;11.40;;;7.40;99.90;;;;;;5089959;28;20420;-52
2022/11/28 12:46:55;;;;;;;13.57;9.30;;;7.50;99.90;;;;;;5089806;28;20024;-55
2022/11/28 12:49:59;;;;;;;21.50;9.40;;;7.50;99.90;;;;;;5089684;28;20134;-57
2022/11/28 12:53:01;;;;;;;21.00;8.88;;;7.50;99.80;;;;;;5075442;28;20103;-53
2022/11/28 12:56:13;;;;;;;18.58;8.82;;;7.50;99.80;;;;;;5090168;28;20024;-56
2022/11/28 12:59:12;;;;;;;12.98;8.73;;;7.60;99.70;;;;;;5074607;28;20399;-53
2022/11/28 13:02:01;;;;;;;14.82;9.85;;;7.60;99.50;;;;;;5074677;28;20028;-51
2022/11/28 13:05:11;;;;;;;15.18;9.75;;;7.50;99.70;;;;;;5088530;28;20035;-57
2022/11/28 13:08:39;;;;;;;14.02;9.07;;;7.50;99.90;;;;;;5089656;28;20028;-56
2022/11/28 13:11:50;;;;;;;27.67;10.40;;;7.50;99.90;;;;;;5090015;28;20028;-54
2022/11/28 13:14:54;;;;;;;15.38;9.55;;;7.50;99.90;;;;;;5089621;28;20514;-56
2022/11/28 13:17:54;;;;;;;21.13;10.68;;;7.60;99.90;;;;;;5090235;28;20120;-58
2022/11/28 13:20:53;;;;;;;20.70;13.77;;;7.50;99.90;;;;;;5089594;28;20021;-57
2022/11/28 13:23:44;;;;;;;16.90;10.02;;;7.60;99.90;;;;;;5090016;28;20024;-59
2022/11/28 13:26:44;;;;;;;15.70;10.57;;;7.60;99.90;;;;;;5089400;28;20030;-62
2022/11/28 13:29:30;;;;;;;25.73;10.90;;;7.60;99.90;;;;;;5092152;28;20512;-56
2022/11/28 13:32:27;;;;;;;19.60;10.10;;;7.50;99.90;;;;;;5093087;28;20051;-56
2022/11/28 13:35:15;;;;;;;14.15;9.10;;;7.60;99.90;;;;;;5094706;28;20062;-58
2022/11/28 13:38:22;;;;;;;15.73;9.35;;;7.50;99.90;;;;;;5094019;28;20063;-55
2022/11/28 13:41:15;;;;;;;24.27;11.98;;;7.50;99.90;;;;;;5094211;28;20500;-55
2022/11/28 13:44:05;;;;;;;26.58;11.05;;;7.50;99.90;;;;;;5079619;28;20416;-58
2022/11/28 13:46:51;;;;;;;11.90;9.40;;;7.40;99.90;;;;;;5093118;28;20017;-56
2022/11/28 13:49:37;;;;;;;12.57;9.40;;;7.40;99.90;;;;;;5094335;28;20440;-55
2022/11/28 13:52:28;;;;;;;21.67;12.38;;;7.40;99.80;;;;;;5092054;28;20426;-54
2022/11/28 13:55:45;;;;;;;18.77;11.13;;;7.50;99.80;;;;;;5092761;28;20511;-58
2022/11/28 13:58:44;;;;;;;20.88;10.77;;;7.50;99.80;;;;;;5092766;28;20032;-56
2022/11/28 14:01:45;;;;;;;14.88;9.88;;;7.40;99.70;;;;;;5091736;28;20020;-57
2022/11/28 14:04:31;;;;;;;19.65;10.23;;;7.40;99.90;;;;;;5093342;28;20117;-55
2022/11/28 14:07:27;;;;;;;16.63;10.35;;;7.40;99.70;;;;;;5077981;28;20103;-57
2022/11/28 14:10:50;;;;;;;20.23;10.13;;;7.40;99.80;;;;;;5092221;28;20032;-55
2022/11/28 14:14:05;;;;;;;49.75;13.02;;;7.40;99.70;;;;;;5086489;28;20020;-58
2022/11/28 14:17:29;;;;;;;15.52;9.73;;;7.30;99.70;;;;;;5086835;28;20028;-57
2022/11/28 14:20:27;;;;;;;15.27;10.15;;;7.30;99.80;;;;;;5091640;28;20048;-55
2022/11/28 14:23:25;;;;;;;13.50;9.95;;;7.30;99.80;;;;;;5093285;28;20103;-56
2022/11/28 14:26:24;;;;;;;16.65;11.23;;;7.30;99.80;;;;;;5092695;28;20431;-57
2022/11/28 14:29:23;;;;;;;17.92;10.55;;;7.20;99.80;;;;;;5092028;28;20396;-55
2022/11/28 14:32:26;;;;;;;14.25;9.55;;;7.20;99.90;;;;;;5077362;28;20031;-56
2022/11/28 14:35:36;;;;;;;60.95;13.57;;;7.20;99.90;;;;;;5093325;28;20143;-55
2022/11/28 14:38:34;;;;;;;20.25;9.85;;;7.20;99.90;;;;;;5077538;28;20547;-55
2022/11/28 14:41:20;;;;;;;18.02;11.07;;;7.20;99.90;;;;;;5069455;28;20069;-52
2022/11/28 14:44:44;;;;;;;49.72;13.57;;;7.20;99.90;;;;;;5099200;28;20481;-57
2022/11/28 14:47:38;;;;;;;18.48;10.63;;;7.40;99.90;;;;;;5084781;28;20109;-55
2022/11/28 14:50:24;;;;;;;24.85;11.13;;;7.40;99.90;;;;;;5071337;28;20024;-55